Terminal Aerodrome Forecast
Issued by NWS Central Illinois

Home | Current Version | Previous Version | Text Only | Print | Product List | Glossary On
Versions: 1 2 3 4 5 6 7 8 9 10 11 12 13 14 15 16 17 18 19 20 21 22 23 24 25 26 27 28 29 30 31 32 33 34 35 36 37 38 39 40 41 42
000
FTUS43 KILX 191126
TAFPIA
TAF
KPIA 191126Z 1912/2012 36016G24KT P6SM BKN022 OVC035
      TEMPO 1912/1914 SCT022 OVC035
     FM191700 01020G31KT P6SM BKN035
     FM192200 01018KT P6SM SCT250
     FM200300 01012KT P6SM SKC WS020/02040KT=

USA.gov is the U.S. government's official web portal to all federal, state and local government web resources and services.